Time;durP1;ratioP1;P1;durP2;ratioP2;P2;SDS_P1;SDS_P2;PMS_P1;PMS_P2;Temp;Humidity;BMP_temperature;BMP_pressure;BME280_temperature;BME280_humidity;BME280_pressure;Samples;Min_cycle;Max_cycle;Signal;HPM_P1;HPM_P2
2021/07/28 00:00:33;;;;;;;5.25;4.75;;;17.80;87.10;;;;;;5056860;28;20025;-72
2021/07/28 00:02:59;;;;;;;4.97;4.47;;;17.80;87.10;;;;;;5056668;28;20032;-72
2021/07/28 00:05:24;;;;;;;5.15;4.65;;;17.90;87.20;;;;;;5057045;28;20391;-71
2021/07/28 00:07:50;;;;;;;5.63;5.13;;;17.80;87.10;;;;;;5056626;28;20027;-71
2021/07/28 00:10:15;;;;;;;6.30;4.88;;;17.80;87.10;;;;;;5074620;28;20028;-73
2021/07/28 00:12:41;;;;;;;5.10;4.60;;;17.80;87.80;;;;;;5074511;28;20480;-72
2021/07/28 00:15:07;;;;;;;6.88;4.72;;;17.80;87.20;;;;;;5056548;28;20518;-72
2021/07/28 00:17:36;;;;;;;5.78;4.90;;;17.80;87.30;;;;;;5056486;28;20483;-72
2021/07/28 00:20:09;;;;;;;5.95;4.93;;;17.80;87.30;;;;;;5056566;28;20040;-71
2021/07/28 00:25:26;;;;;;;5.10;4.60;;;17.80;87.30;;;;;;5074308;28;20040;-71
2021/07/28 00:27:51;;;;;;;5.55;5.03;;;17.70;87.30;;;;;;5056347;28;20082;-72
2021/07/28 00:30:18;;;;;;;5.82;5.22;;;17.70;87.30;;;;;;5074161;28;20430;-72
2021/07/28 00:32:43;;;;;;;4.95;4.45;;;17.70;87.30;;;;;;5074118;28;20055;-72
2021/07/28 00:35:09;;;;;;;5.63;4.97;;;17.70;87.40;;;;;;5074107;28;20071;-72
2021/07/28 00:37:35;;;;;;;5.50;4.93;;;17.60;87.40;;;;;;5056119;28;20031;-72
2021/07/28 00:40:01;;;;;;;5.20;4.70;;;17.60;87.40;;;;;;5055704;28;20225;-72
2021/07/28 00:42:27;;;;;;;7.28;5.32;;;17.60;87.40;;;;;;5073903;28;20025;-72
2021/07/28 00:44:52;;;;;;;6.05;5.45;;;17.60;87.40;;;;;;5073697;28;20025;-73
2021/07/28 00:47:18;;;;;;;6.25;5.35;;;17.50;87.50;;;;;;5055809;28;20120;-72
2021/07/28 00:49:44;;;;;;;6.28;5.22;;;17.50;87.50;;;;;;5052325;28;20041;-72
2021/07/28 00:52:10;;;;;;;6.00;5.40;;;17.50;87.60;;;;;;5052479;28;20526;-72
2021/07/28 00:54:36;;;;;;;5.82;4.82;;;17.50;88.20;;;;;;5052428;28;20025;-72
2021/07/28 00:57:02;;;;;;;6.03;5.40;;;17.50;87.60;;;;;;5052651;28;20036;-73
2021/07/28 00:59:28;;;;;;;5.93;5.32;;;17.50;87.50;;;;;;5052447;28;20154;-72
2021/07/28 01:01:53;;;;;;;6.00;5.40;;;17.50;87.60;;;;;;5053529;28;20061;-73
2021/07/28 01:04:20;;;;;;;6.10;5.47;;;17.50;88.30;;;;;;5053486;28;20033;-72
2021/07/28 01:06:45;;;;;;;6.47;5.03;;;17.50;87.70;;;;;;5052161;28;20554;-72
2021/07/28 01:09:11;;;;;;;6.53;5.25;;;17.50;87.80;;;;;;5052067;28;20017;-72
2021/07/28 01:11:37;;;;;;;5.68;5.00;;;17.50;87.70;;;;;;5053422;28;20033;-72
2021/07/28 01:14:04;;;;;;;6.32;5.38;;;17.40;87.70;;;;;;5052111;28;20095;-72
2021/07/28 01:16:36;;;;;;;6.00;5.40;;;17.40;87.70;;;;;;5053301;28;20075;-72
2021/07/28 01:19:03;;;;;;;7.40;5.30;;;17.40;87.80;;;;;;5052022;28;20036;-72
2021/07/28 01:21:29;;;;;;;6.55;5.88;;;17.40;87.70;;;;;;5052021;28;20033;-72
2021/07/28 01:23:55;;;;;;;6.45;5.50;;;17.40;87.70;;;;;;5051845;28;20124;-72
2021/07/28 01:26:21;;;;;;;6.57;5.15;;;17.40;87.80;;;;;;5052352;28;20463;-72
2021/07/28 01:28:47;;;;;;;6.70;5.47;;;17.40;87.80;;;;;;5053179;28;20025;-72
2021/07/28 01:31:16;;;;;;;6.28;5.68;;;17.40;87.80;;;;;;5051849;28;20063;-72
2021/07/28 01:33:46;;;;;;;7.10;5.93;;;17.40;87.80;;;;;;5053110;28;20025;-72
2021/07/28 01:36:15;;;;;;;7.57;5.78;;;17.40;87.90;;;;;;5053165;28;20032;-73
2021/07/28 01:38:40;;;;;;;7.30;5.60;;;17.40;87.80;;;;;;5053085;28;20053;-73
2021/07/28 01:41:07;;;;;;;5.95;5.35;;;17.30;87.80;;;;;;5051649;28;20052;-73
2021/07/28 01:43:33;;;;;;;5.82;5.10;;;17.30;87.80;;;;;;5051598;28;20488;-73
2021/07/28 01:46:00;;;;;;;7.50;5.55;;;17.30;87.90;;;;;;5051644;28;20025;-73
2021/07/28 01:48:27;;;;;;;7.72;5.80;;;17.30;87.90;;;;;;5051679;28;20070;-73
2021/07/28 01:50:54;;;;;;;6.05;5.45;;;17.20;87.90;;;;;;5051485;28;20048;-73
2021/07/28 01:53:21;;;;;;;6.05;5.00;;;17.20;88.00;;;;;;5052889;28;20067;-73
2021/07/28 01:55:46;;;;;;;8.10;5.30;;;17.20;88.00;;;;;;5051470;28;20063;-73
2021/07/28 01:58:12;;;;;;;6.28;5.53;;;17.20;88.00;;;;;;5052813;28;20020;-73
2021/07/28 02:00:39;;;;;;;7.50;5.75;;;17.20;88.00;;;;;;5053072;28;20035;-72
2021/07/28 02:03:05;;;;;;;6.63;5.38;;;17.20;88.00;;;;;;5052691;28;20040;-73
2021/07/28 02:05:32;;;;;;;6.47;5.60;;;17.20;88.00;;;;;;5051493;28;20032;-73
2021/07/28 02:08:02;;;;;;;7.18;5.53;;;17.20;88.10;;;;;;5051379;28;20025;-73
2021/07/28 02:10:29;;;;;;;6.28;5.50;;;17.20;88.10;;;;;;5051796;28;20541;-73
2021/07/28 02:12:55;;;;;;;6.65;5.88;;;17.20;88.20;;;;;;5052635;28;20025;-71
2021/07/28 02:15:23;;;;;;;7.07;5.97;;;17.20;88.10;;;;;;5051534;28;20028;-72
2021/07/28 02:17:50;;;;;;;6.30;5.57;;;17.10;88.00;;;;;;5052641;28;20029;-73
2021/07/28 02:20:16;;;;;;;7.30;5.32;;;17.20;88.00;;;;;;5051408;28;20120;-73
2021/07/28 02:22:42;;;;;;;6.25;5.07;;;17.20;88.00;;;;;;5051341;28;20037;-73
2021/07/28 02:25:08;;;;;;;7.90;5.68;;;17.30;88.00;;;;;;5051232;28;20550;-72
2021/07/28 02:27:34;;;;;;;7.53;6.43;;;17.30;87.90;;;;;;5052540;28;20025;-71
2021/07/28 02:30:00;;;;;;;7.43;5.38;;;17.30;87.90;;;;;;5052492;28;20484;-71
2021/07/28 02:32:26;;;;;;;7.65;5.75;;;17.40;87.90;;;;;;5052594;28;20392;-72
2021/07/28 02:34:52;;;;;;;6.55;5.68;;;17.40;87.80;;;;;;5051180;28;20511;-72
2021/07/28 02:37:18;;;;;;;5.88;5.15;;;17.40;87.70;;;;;;5051202;28;20028;-73
2021/07/28 02:39:43;;;;;;;5.70;5.18;;;17.40;87.70;;;;;;5052413;28;20027;-73
2021/07/28 02:42:11;;;;;;;5.53;5.03;;;17.40;87.70;;;;;;5051117;28;20025;-72
2021/07/28 02:44:36;;;;;;;5.72;5.13;;;17.40;87.70;;;;;;5052328;28;20028;-72
2021/07/28 02:47:02;;;;;;;5.30;4.80;;;17.40;87.70;;;;;;5051077;28;20124;-71
2021/07/28 02:49:27;;;;;;;5.63;4.85;;;17.40;87.70;;;;;;5057264;28;20043;-72
2021/07/28 02:51:53;;;;;;;6.32;5.20;;;17.40;87.70;;;;;;5072284;28;20032;-73
2021/07/28 02:54:21;;;;;;;5.63;4.82;;;17.40;87.80;;;;;;5072249;28;20099;-73
2021/07/28 02:56:48;;;;;;;6.80;4.80;;;17.40;87.80;;;;;;5054706;28;20032;-73
2021/07/28 02:59:13;;;;;;;8.10;5.30;;;17.40;87.90;;;;;;5054378;28;20059;-72
2021/07/28 03:01:39;;;;;;;6.10;4.97;;;17.40;87.90;;;;;;5072510;28;20060;-72
2021/07/28 03:04:05;;;;;;;5.70;4.95;;;17.40;87.90;;;;;;5075818;28;20027;-72
2021/07/28 03:06:31;;;;;;;6.43;5.65;;;17.40;87.80;;;;;;5074831;28;20044;-72
2021/07/28 03:08:56;;;;;;;6.00;5.10;;;17.40;87.70;;;;;;5074458;28;20119;-73
2021/07/28 03:11:22;;;;;;;7.13;5.22;;;17.40;87.70;;;;;;5075672;28;20021;-72
2021/07/28 03:13:47;;;;;;;6.80;5.15;;;17.50;87.80;;;;;;5057720;28;20024;-72
2021/07/28 03:16:13;;;;;;;7.30;5.03;;;17.50;87.80;;;;;;5075661;28;20024;-73
2021/07/28 03:18:38;;;;;;;6.32;4.35;;;17.50;87.80;;;;;;5057718;28;20024;-72
2021/07/28 03:21:04;;;;;;;7.20;4.90;;;17.50;87.80;;;;;;5075704;28;20025;-72
2021/07/28 03:23:30;;;;;;;6.50;5.15;;;17.50;87.70;;;;;;5057595;28;20015;-72
2021/07/28 03:25:56;;;;;;;6.03;4.88;;;17.50;87.70;;;;;;5075358;28;20032;-72
2021/07/28 03:28:21;;;;;;;5.38;4.72;;;17.50;87.70;;;;;;5074317;28;20075;-72
2021/07/28 03:30:49;;;;;;;6.22;4.68;;;17.50;87.60;;;;;;5057345;28;20036;-72
2021/07/28 03:33:15;;;;;;;6.53;5.50;;;17.50;87.70;;;;;;5057381;28;20024;-72
2021/07/28 03:35:40;;;;;;;6.75;5.70;;;17.60;87.70;;;;;;5074345;28;20059;-72
2021/07/28 03:41:28;;;;;;;6.75;5.65;;;17.50;87.60;;;;;;5075291;28;20036;-72
2021/07/28 03:43:54;;;;;;;5.75;4.95;;;17.50;87.60;;;;;;5073796;28;20422;-72
2021/07/28 03:46:19;;;;;;;5.60;5.05;;;17.50;87.70;;;;;;5073823;28;20456;-72
2021/07/28 03:48:45;;;;;;;6.20;5.38;;;17.60;87.70;;;;;;5075033;28;20062;-72
2021/07/28 03:51:10;;;;;;;5.85;5.25;;;17.60;87.70;;;;;;5053550;28;20044;-72
2021/07/28 03:53:36;;;;;;;5.50;4.80;;;17.60;87.70;;;;;;5054902;28;20025;-72
2021/07/28 03:56:02;;;;;;;6.03;5.38;;;17.50;87.70;;;;;;5053563;28;20120;-72
2021/07/28 03:58:27;;;;;;;6.38;5.10;;;17.60;87.70;;;;;;5054844;28;20079;-72
2021/07/28 04:00:53;;;;;;;6.57;5.20;;;17.50;87.70;;;;;;5053527;28;20083;-72
2021/07/28 04:03:18;;;;;;;6.82;5.82;;;17.50;87.70;;;;;;5053510;28;20027;-72
2021/07/28 04:05:44;;;;;;;5.88;5.28;;;17.50;87.70;;;;;;5053335;28;20033;-71
2021/07/28 04:08:09;;;;;;;5.45;4.82;;;17.50;87.70;;;;;;5053373;28;20017;-72
2021/07/28 04:10:37;;;;;;;5.80;5.22;;;17.50;87.80;;;;;;5053420;28;20051;-72
2021/07/28 04:13:03;;;;;;;6.75;5.20;;;17.50;87.70;;;;;;5052756;28;20014;-71
2021/07/28 04:15:28;;;;;;;6.88;5.80;;;17.50;87.70;;;;;;5052761;28;20025;-71
2021/07/28 04:17:54;;;;;;;6.47;4.78;;;17.50;87.70;;;;;;5053216;28;20021;-71
2021/07/28 04:23:41;;;;;;;5.38;4.38;;;17.50;87.60;;;;;;5054731;28;20483;-72
2021/07/28 04:26:07;;;;;;;6.75;5.20;;;17.50;87.50;;;;;;5053143;28;20025;-72
2021/07/28 04:28:32;;;;;;;7.60;4.90;;;17.50;87.50;;;;;;5054276;28;20028;-71
2021/07/28 04:30:58;;;;;;;5.20;4.68;;;17.50;87.50;;;;;;5052965;28;20047;-72
2021/07/28 04:33:23;;;;;;;5.40;4.80;;;17.50;87.50;;;;;;5053093;28;20025;-72
2021/07/28 04:35:49;;;;;;;5.20;4.70;;;17.60;87.60;;;;;;5053976;28;20028;-73
2021/07/28 04:38:15;;;;;;;6.75;4.65;;;17.60;87.50;;;;;;5053925;28;20027;-72
2021/07/28 04:40:40;;;;;;;5.75;4.75;;;17.60;87.50;;;;;;5054050;28;20079;-72
2021/07/28 04:43:06;;;;;;;7.22;5.25;;;17.60;88.10;;;;;;5054042;28;20076;-72
2021/07/28 04:45:31;;;;;;;6.53;4.57;;;17.60;87.50;;;;;;5052609;28;20078;-72
2021/07/28 04:47:57;;;;;;;6.40;4.47;;;17.60;87.50;;;;;;5052909;28;20490;-72
2021/07/28 04:50:23;;;;;;;6.55;5.28;;;17.60;87.50;;;;;;5066144;28;20044;-72
2021/07/28 04:52:48;;;;;;;6.53;4.85;;;17.60;87.50;;;;;;5073723;28;20038;-72
2021/07/28 04:55:14;;;;;;;5.22;4.60;;;17.70;87.50;;;;;;5055782;28;20025;-72
2021/07/28 04:57:39;;;;;;;6.28;4.93;;;17.70;87.50;;;;;;5073600;28;20067;-72
2021/07/28 05:00:06;;;;;;;5.90;5.10;;;17.70;87.40;;;;;;5073599;28;20529;-72
2021/07/28 05:02:32;;;;;;;5.35;4.85;;;17.70;87.40;;;;;;5073740;28;20032;-72
2021/07/28 05:04:57;;;;;;;5.22;4.68;;;17.70;87.30;;;;;;5055500;28;20029;-72
2021/07/28 05:07:23;;;;;;;6.00;5.30;;;17.70;87.30;;;;;;5073533;28;20055;-73
2021/07/28 05:09:48;;;;;;;6.10;4.85;;;17.70;87.30;;;;;;5073444;28;20024;-72
2021/07/28 05:12:14;;;;;;;5.18;4.68;;;17.80;87.40;;;;;;5055435;28;20020;-72
2021/07/28 05:14:39;;;;;;;5.57;5.07;;;17.80;87.50;;;;;;5073430;28;20052;-72
2021/07/28 05:17:05;;;;;;;4.57;4.18;;;17.80;88.00;;;;;;5055739;28;20028;-72
2021/07/28 05:19:31;;;;;;;5.78;5.18;;;17.80;87.40;;;;;;5055430;28;20036;-72
2021/07/28 05:21:56;;;;;;;6.05;5.45;;;17.80;87.40;;;;;;5055320;28;20032;-72
2021/07/28 05:24:22;;;;;;;5.90;4.97;;;17.80;87.40;;;;;;5072904;28;20039;-72
2021/07/28 05:26:48;;;;;;;5.55;5.00;;;17.90;87.40;;;;;;5055820;28;20037;-72
2021/07/28 05:29:13;;;;;;;5.82;5.25;;;17.80;87.30;;;;;;5055164;28;20016;-72
2021/07/28 05:31:39;;;;;;;5.70;5.10;;;17.90;87.40;;;;;;5055092;28;20024;-72
2021/07/28 05:34:04;;;;;;;5.80;5.20;;;17.90;87.40;;;;;;5073248;28;20049;-72
2021/07/28 05:36:30;;;;;;;7.15;5.43;;;17.90;87.40;;;;;;5055396;28;20024;-72
2021/07/28 05:38:56;;;;;;;6.03;4.75;;;17.90;87.40;;;;;;5055396;28;20070;-73
2021/07/28 05:41:21;;;;;;;6.53;5.20;;;17.90;87.40;;;;;;5071724;28;20392;-72
2021/07/28 05:43:47;;;;;;;5.78;5.18;;;17.90;87.40;;;;;;5072823;28;20361;-72
2021/07/28 05:46:12;;;;;;;5.90;5.13;;;18.00;87.40;;;;;;5072912;28;20472;-72
2021/07/28 05:48:38;;;;;;;5.75;5.18;;;18.00;87.40;;;;;;5072920;28;20025;-71
2021/07/28 05:51:03;;;;;;;7.05;5.25;;;18.00;87.30;;;;;;5072799;28;20044;-72
2021/07/28 05:53:29;;;;;;;6.68;5.40;;;18.00;87.30;;;;;;5054968;28;20021;-73
2021/07/28 05:55:55;;;;;;;9.10;5.72;;;18.00;87.30;;;;;;5054807;28;20438;-73
2021/07/28 05:58:21;;;;;;;7.40;5.50;;;18.10;87.30;;;;;;5072891;28;20024;-73
2021/07/28 06:00:48;;;;;;;7.95;6.05;;;18.10;87.30;;;;;;5072754;28;20035;-73
2021/07/28 06:03:14;;;;;;;6.18;5.55;;;18.10;87.30;;;;;;5072862;28;20107;-73
2021/07/28 06:05:40;;;;;;;5.50;5.00;;;18.10;87.30;;;;;;5072670;28;20448;-72
2021/07/28 06:08:05;;;;;;;5.78;5.18;;;18.10;87.30;;;;;;5054823;28;20114;-72
2021/07/28 06:10:31;;;;;;;6.00;5.32;;;18.10;87.30;;;;;;5072667;28;20028;-72
2021/07/28 06:12:59;;;;;;;6.18;5.50;;;18.20;87.30;;;;;;5054721;28;20056;-72
2021/07/28 06:15:25;;;;;;;7.90;6.22;;;18.20;87.30;;;;;;5072719;28;20067;-72
2021/07/28 06:17:50;;;;;;;6.63;5.93;;;18.30;87.20;;;;;;5072631;28;20060;-72
2021/07/28 06:20:18;;;;;;;7.72;6.32;;;18.30;87.10;;;;;;5054643;28;20107;-72
2021/07/28 06:22:44;;;;;;;7.13;5.57;;;18.30;87.00;;;;;;5054588;28;20025;-72
2021/07/28 06:25:10;;;;;;;8.82;6.65;;;18.30;87.00;;;;;;5071242;28;20025;-72
2021/07/28 06:27:35;;;;;;;7.82;7.05;;;18.30;87.00;;;;;;5072556;28;20130;-72
2021/07/28 06:33:23;;;;;;;7.20;6.38;;;18.40;87.10;;;;;;5072825;28;20082;-72
2021/07/28 06:35:50;;;;;;;7.93;6.88;;;18.40;87.00;;;;;;5072470;28;20029;-72
2021/07/28 06:38:18;;;;;;;8.63;6.50;;;18.50;86.90;;;;;;5074083;28;20082;-72
2021/07/28 06:40:44;;;;;;;8.73;6.90;;;18.50;86.90;;;;;;5055533;28;20039;-72
2021/07/28 06:43:10;;;;;;;6.80;6.20;;;18.50;86.90;;;;;;5076146;28;20032;-72
2021/07/28 06:45:36;;;;;;;7.70;6.78;;;18.60;86.80;;;;;;5076469;28;20060;-71
2021/07/28 06:48:02;;;;;;;8.05;6.22;;;18.70;86.70;;;;;;5058195;28;20048;-71
2021/07/28 06:50:28;;;;;;;6.80;6.00;;;18.70;87.20;;;;;;5054575;28;20045;-71
2021/07/28 06:52:53;;;;;;;6.97;6.28;;;18.80;86.40;;;;;;5055180;28;20086;-71
2021/07/28 06:55:19;;;;;;;7.55;5.90;;;18.90;86.30;;;;;;5055990;28;20082;-73
2021/07/28 06:57:45;;;;;;;7.03;6.32;;;18.90;86.20;;;;;;5056009;28;20029;-72
2021/07/28 07:00:10;;;;;;;6.88;5.97;;;19.00;86.10;;;;;;5055943;28;20143;-71
2021/07/28 07:02:36;;;;;;;6.60;6.00;;;19.00;86.00;;;;;;5056084;28;20036;-72
2021/07/28 07:05:03;;;;;;;7.07;6.22;;;18.90;85.90;;;;;;5054491;28;20017;-72
2021/07/28 07:07:28;;;;;;;8.63;6.30;;;18.90;86.00;;;;;;5054496;28;20021;-72
2021/07/28 07:13:18;;;;;;;7.28;5.75;;;18.90;86.00;;;;;;5055938;28;20027;-75
2021/07/28 07:15:44;;;;;;;7.05;6.35;;;19.00;86.00;;;;;;5054361;28;20044;-73
2021/07/28 07:21:52;;;;;;;7.20;5.93;;;19.20;85.50;;;;;;5055930;28;20447;-74
2021/07/28 07:24:18;;;;;;;6.22;5.63;;;19.30;85.20;;;;;;5054425;28;20029;-73
2021/07/28 07:26:44;;;;;;;7.03;5.57;;;19.40;85.10;;;;;;5055725;28;20346;-75
2021/07/28 07:29:10;;;;;;;6.10;5.30;;;19.40;84.80;;;;;;5054408;28;20053;-73
2021/07/28 07:31:35;;;;;;;5.88;5.00;;;19.40;84.80;;;;;;5055386;28;20021;-72
2021/07/28 07:34:01;;;;;;;5.70;4.63;;;19.40;84.70;;;;;;5055250;28;20090;-71
2021/07/28 07:36:27;;;;;;;6.40;4.65;;;19.50;84.70;;;;;;5055159;28;20043;-72
2021/07/28 07:38:52;;;;;;;6.18;4.65;;;19.50;84.50;;;;;;5053999;28;20025;-73
2021/07/28 07:41:18;;;;;;;6.60;4.45;;;19.50;84.20;;;;;;5053944;28;20492;-73
2021/07/28 07:43:43;;;;;;;5.85;4.60;;;19.50;84.00;;;;;;5055079;28;20469;-73
2021/07/28 07:46:09;;;;;;;6.78;4.80;;;19.50;83.90;;;;;;5054079;28;20443;-72
2021/07/28 07:48:35;;;;;;;5.47;4.70;;;19.40;83.70;;;;;;5053592;28;20049;-73
2021/07/28 07:51:00;;;;;;;5.22;4.25;;;19.40;83.60;;;;;;5072517;28;20052;-73
2021/07/28 07:53:26;;;;;;;5.75;4.05;;;19.40;83.50;;;;;;5057481;28;20013;-72
2021/07/28 07:55:55;;;;;;;4.40;4.00;;;19.50;83.50;;;;;;5056892;28;20501;-72
2021/07/28 08:02:20;;;;;;;4.43;3.85;;;19.60;83.10;;;;;;5013434;28;20041;-73
2021/07/28 08:05:22;;;;;;;;;;;;;;;;;;;;;
2021/07/28 08:11:13;;;;;;;3.75;3.33;;;19.80;81.60;;;;;;5012887;28;20029;-71
2021/07/28 08:13:39;;;;;;;5.13;3.67;;;20.00;81.30;;;;;;5012881;28;20030;-69
2021/07/28 08:16:16;;;;;;;3.33;2.92;;;20.10;80.90;;;;;;5035748;28;20036;-69
2021/07/28 08:18:42;;;;;;;5.10;2.95;;;20.10;80.50;;;;;;5074639;28;20099;-69
2021/07/28 08:21:09;;;;;;;3.28;2.97;;;20.10;80.50;;;;;;5074354;28;20104;-69
2021/07/28 08:23:36;;;;;;;4.45;3.30;;;20.10;80.30;;;;;;5056477;28;20113;-70
2021/07/28 08:26:02;;;;;;;3.10;2.80;;;20.10;80.10;;;;;;5056393;28;20032;-70
2021/07/28 08:28:28;;;;;;;3.40;2.78;;;20.10;79.90;;;;;;5056347;28;20476;-70
2021/07/28 08:30:55;;;;;;;3.80;2.90;;;20.10;79.50;;;;;;5056483;28;20026;-69
2021/07/28 08:33:23;;;;;;;4.60;3.13;;;20.10;79.30;;;;;;5074109;28;20020;-72
2021/07/28 08:35:49;;;;;;;4.38;3.25;;;20.00;79.00;;;;;;5074058;28;20095;-72
2021/07/28 08:38:14;;;;;;;4.18;3.00;;;20.00;79.10;;;;;;5074118;28;20048;-71
2021/07/28 08:40:43;;;;;;;3.72;3.20;;;19.90;79.20;;;;;;5074004;28;20033;-71
2021/07/28 08:43:08;;;;;;;4.03;3.10;;;19.90;79.20;;;;;;5073882;28;20028;-71
2021/07/28 08:45:34;;;;;;;4.88;3.20;;;20.00;79.10;;;;;;5073965;28;20024;-72
2021/07/28 08:48:00;;;;;;;4.47;3.03;;;20.00;78.90;;;;;;5073874;28;20123;-73
2021/07/28 08:50:27;;;;;;;4.32;2.90;;;20.00;78.70;;;;;;5069005;28;20102;-74
2021/07/28 08:52:54;;;;;;;3.83;3.05;;;20.00;78.60;;;;;;5053904;28;20380;-73
2021/07/28 08:55:21;;;;;;;4.15;3.05;;;20.10;78.40;;;;;;5052468;28;20025;-73
2021/07/28 08:57:46;;;;;;;3.70;3.10;;;20.10;78.20;;;;;;5053770;28;20025;-69
2021/07/28 09:00:12;;;;;;;5.15;2.58;;;20.10;77.70;;;;;;5053068;28;20074;-71
2021/07/28 09:02:39;;;;;;;4.40;2.63;;;20.20;77.50;;;;;;5052371;28;20081;-71
2021/07/28 09:05:05;;;;;;;2.72;2.45;;;20.40;77.10;;;;;;5053246;28;20481;-72
2021/07/28 09:07:40;;;;;;;2.75;2.50;;;20.60;76.50;;;;;;5053369;28;20031;-74
2021/07/28 09:10:06;;;;;;;3.03;2.53;;;20.70;75.60;;;;;;5051907;28;20485;-75
2021/07/28 09:12:34;;;;;;;3.47;2.40;;;20.70;75.40;;;;;;5048702;28;20021;-73
2021/07/28 09:18:37;;;;;;;5.30;3.08;;;20.70;75.10;;;;;;5053647;28;20075;-73
2021/07/28 09:21:27;;;;;;;3.78;2.42;;;20.70;75.00;;;;;;5053347;28;20025;-73
2021/07/28 09:24:09;;;;;;;2.67;2.05;;;20.60;74.80;;;;;;5044414;28;20123;-73
2021/07/28 09:26:46;;;;;;;5.38;2.50;;;20.60;75.00;;;;;;5051817;28;20071;-72
2021/07/28 09:29:21;;;;;;;3.60;2.40;;;20.50;74.90;;;;;;5053145;28;20029;-72
2021/07/28 09:31:53;;;;;;;3.47;2.58;;;20.50;74.80;;;;;;5051500;28;20396;-73
2021/07/28 09:34:22;;;;;;;2.72;2.00;;;20.50;74.60;;;;;;5053030;28;20029;-72
2021/07/28 09:36:49;;;;;;;5.32;2.20;;;20.60;74.60;;;;;;5051724;28;20036;-72
2021/07/28 09:39:28;;;;;;;2.33;2.13;;;20.70;74.00;;;;;;5052956;28;20123;-73
2021/07/28 09:41:56;;;;;;;2.47;2.17;;;20.80;73.70;;;;;;5051654;28;20021;-74
2021/07/28 09:44:33;;;;;;;2.45;2.00;;;20.80;73.50;;;;;;5051461;28;20021;-71
2021/07/28 09:47:16;;;;;;;3.50;2.10;;;20.80;73.40;;;;;;5051642;28;20127;-73
2021/07/28 09:49:57;;;;;;;2.88;2.13;;;20.80;73.40;;;;;;5059469;28;20589;-73
2021/07/28 09:52:23;;;;;;;4.80;2.20;;;20.80;73.30;;;;;;5055296;28;20024;-74
2021/07/28 09:54:51;;;;;;;2.72;2.08;;;20.80;72.90;;;;;;5055063;28;20428;-74
2021/07/28 09:57:20;;;;;;;2.83;1.70;;;20.90;72.90;;;;;;5054815;28;20024;-75
2021/07/28 09:59:53;;;;;;;4.45;2.03;;;21.00;72.80;;;;;;5054861;28;20384;-74
2021/07/28 10:02:20;;;;;;;;;;;21.10;72.50;;;;;;5055285;28;20025;-74
2021/07/28 10:04:50;;;;;;;3.50;2.08;;;21.20;72.50;;;;;;5054541;28;20383;-74
2021/07/28 10:07:17;;;;;;;2.67;2.05;;;21.20;72.40;;;;;;5054584;28;20100;-72
2021/07/28 10:09:49;;;;;;;2.30;1.63;;;21.30;72.20;;;;;;5072675;28;20029;-74
2021/07/28 10:12:16;;;;;;;3.28;1.92;;;21.50;71.90;;;;;;5056126;28;20012;-74
2021/07/28 10:14:43;;;;;;;2.10;1.90;;;21.60;71.50;;;;;;5058723;28;20021;-74
2021/07/28 10:17:10;;;;;;;4.38;1.80;;;21.70;71.30;;;;;;5059203;28;20021;-73
2021/07/28 10:19:37;;;;;;;3.05;1.70;;;21.90;70.80;;;;;;5058834;28;20094;-74
2021/07/28 10:22:03;;;;;;;3.75;1.90;;;22.00;70.40;;;;;;5076860;28;20032;-75
2021/07/28 10:24:29;;;;;;;2.90;1.90;;;22.10;70.10;;;;;;5059070;28;20056;-73
2021/07/28 10:27:00;;;;;;;3.53;1.88;;;22.20;69.40;;;;;;5076685;28;20024;-74
2021/07/28 10:29:26;;;;;;;2.03;1.70;;;22.20;69.10;;;;;;5058684;28;20097;-74
2021/07/28 10:31:53;;;;;;;3.65;1.85;;;22.20;68.60;;;;;;5076337;28;20024;-74
2021/07/28 10:34:30;;;;;;;2.25;1.83;;;22.10;68.10;;;;;;5055666;28;20067;-74
2021/07/28 10:37:01;;;;;;;2.75;2.08;;;22.00;68.10;;;;;;5076283;28;20031;-74
2021/07/28 10:39:47;;;;;;;2.88;1.90;;;22.00;68.10;;;;;;5058363;28;20028;-74
2021/07/28 10:42:30;;;;;;;3.20;1.80;;;22.00;68.40;;;;;;5058181;28;20073;-73
2021/07/28 10:45:01;;;;;;;3.45;2.10;;;22.00;68.10;;;;;;5075977;28;20025;-76
2021/07/28 10:47:38;;;;;;;2.05;1.77;;;22.10;67.40;;;;;;5058429;28;20055;-73
2021/07/28 10:50:09;;;;;;;3.58;1.80;;;22.10;67.50;;;;;;5075940;28;20119;-73
2021/07/28 10:52:44;;;;;;;2.88;2.00;;;22.20;66.70;;;;;;5057893;28;20491;-74
2021/07/28 10:55:15;;;;;;;3.47;1.73;;;22.20;66.70;;;;;;5058100;28;20021;-72
2021/07/28 10:57:44;;;;;;;2.97;1.80;;;22.10;66.70;;;;;;5057820;28;20032;-72
2021/07/28 11:03:46;;;;;;;3.45;1.80;;;21.80;67.00;;;;;;5075981;28;20028;-73
2021/07/28 11:06:18;;;;;;;2.28;1.73;;;21.70;67.40;;;;;;5058230;28;20021;-73
2021/07/28 11:08:43;;;;;;;2.03;1.58;;;21.70;67.50;;;;;;5057707;28;20016;-72
2021/07/28 11:11:09;;;;;;;2.22;1.60;;;21.80;67.70;;;;;;5075616;28;20023;-73
2021/07/28 11:13:42;;;;;;;2.28;1.63;;;21.90;67.40;;;;;;5075669;28;20093;-72
2021/07/28 11:16:09;;;;;;;2.17;1.98;;;22.00;67.40;;;;;;5057603;28;20020;-72
2021/07/28 11:18:38;;;;;;;2.08;1.77;;;22.10;66.60;;;;;;5057506;28;20213;-74
2021/07/28 11:21:14;;;;;;;2.95;1.70;;;22.10;66.50;;;;;;5058097;28;20028;-74
2021/07/28 11:23:51;;;;;;;3.85;2.08;;;22.20;66.60;;;;;;5075014;28;20021;-74
2021/07/28 11:26:22;;;;;;;4.07;1.75;;;22.40;66.00;;;;;;5057547;28;20025;-74
2021/07/28 11:28:49;;;;;;;2.50;1.58;;;22.60;65.30;;;;;;5075380;28;20104;-74
2021/07/28 11:31:21;;;;;;;3.75;1.70;;;22.60;65.00;;;;;;5057421;28;20020;-74
2021/07/28 11:33:47;;;;;;;3.42;1.85;;;22.60;64.50;;;;;;5075376;28;20039;-74
2021/07/28 11:36:18;;;;;;;4.13;1.88;;;22.50;64.30;;;;;;5057241;28;20021;-74
2021/07/28 11:38:44;;;;;;;2.65;1.60;;;22.30;64.30;;;;;;5057137;28;20035;-74
2021/07/28 11:41:10;;;;;;;2.55;1.80;;;22.30;64.60;;;;;;5075229;28;20496;-72
2021/07/28 11:43:42;;;;;;;3.00;1.73;;;22.20;64.20;;;;;;5056947;28;20021;-73
2021/07/28 11:46:15;;;;;;;3.63;1.85;;;22.20;64.50;;;;;;5057254;28;20028;-73
2021/07/28 11:48:46;;;;;;;3.13;1.85;;;22.20;64.70;;;;;;5057388;28;20019;-73
2021/07/28 11:51:21;;;;;;;1.98;1.52;;;22.20;64.60;;;;;;5053564;28;20136;-75
2021/07/28 11:53:47;;;;;;;2.15;1.45;;;22.30;64.60;;;;;;5054068;28;20025;-75
2021/07/28 11:56:14;;;;;;;3.47;1.55;;;22.50;64.50;;;;;;5054135;28;20027;-75
2021/07/28 11:58:44;;;;;;;2.45;1.67;;;22.60;64.40;;;;;;5053578;28;20036;-73
2021/07/28 12:01:30;;;;;;;2.35;1.52;;;22.70;64.00;;;;;;5054787;28;20028;-73
2021/07/28 12:03:57;;;;;;;2.58;1.50;;;22.70;63.70;;;;;;5053375;28;20017;-73
2021/07/28 12:06:37;;;;;;;2.33;1.48;;;22.70;63.70;;;;;;5053517;28;20499;-75
2021/07/28 12:09:08;;;;;;;2.70;1.38;;;22.80;63.50;;;;;;5053169;28;20473;-73
2021/07/28 12:12:00;;;;;;;3.17;1.65;;;22.80;63.70;;;;;;5053336;28;20021;-74
2021/07/28 12:14:39;;;;;;;3.08;1.73;;;23.00;63.40;;;;;;5054629;28;20017;-75
2021/07/28 12:17:05;;;;;;;1.85;1.42;;;23.00;63.20;;;;;;5053283;28;21070;-75
2021/07/28 12:19:36;;;;;;;4.88;1.92;;;23.10;63.10;;;;;;5053306;28;20075;-74
2021/07/28 12:22:04;;;;;;;2.38;1.55;;;23.10;62.20;;;;;;5053041;28;20377;-74
2021/07/28 12:27:59;;;;;;;4.65;1.90;;;23.20;62.40;;;;;;5054466;28;20510;-74
2021/07/28 12:30:26;;;;;;;3.00;1.70;;;23.10;62.50;;;;;;5053266;28;20476;-74
2021/07/28 12:33:04;;;;;;;2.85;1.55;;;23.00;62.60;;;;;;5052238;28;20124;-74
2021/07/28 12:35:33;;;;;;;3.97;1.52;;;23.10;62.70;;;;;;5051889;28;20017;-74
2021/07/28 12:38:14;;;;;;;2.88;1.33;;;23.10;62.80;;;;;;5053952;28;20036;-74
2021/07/28 12:40:46;;;;;;;5.68;1.85;;;23.20;62.80;;;;;;5054041;28;20033;-74
2021/07/28 12:43:12;;;;;;;2.80;1.60;;;23.20;62.50;;;;;;5053170;28;20024;-74
2021/07/28 12:45:39;;;;;;;5.50;1.80;;;23.20;62.30;;;;;;5052494;28;20025;-74
2021/07/28 12:48:05;;;;;;;2.47;1.17;;;23.20;62.30;;;;;;5053886;28;20043;-74
2021/07/28 12:50:32;;;;;;;3.10;1.52;;;23.20;62.30;;;;;;5066987;28;20047;-74
2021/07/28 12:52:58;;;;;;;4.20;1.45;;;23.10;62.50;;;;;;5055835;28;20020;-75
2021/07/28 12:55:23;;;;;;;2.03;1.42;;;23.10;62.50;;;;;;5055940;28;20449;-74
2021/07/28 12:57:49;;;;;;;3.70;1.40;;;23.00;62.60;;;;;;5055747;28;20036;-74
2021/07/28 13:00:15;;;;;;;2.13;1.60;;;23.00;62.70;;;;;;5055769;28;20123;-74
2021/07/28 13:02:41;;;;;;;2.28;1.60;;;23.20;62.60;;;;;;5072268;28;20035;-74
2021/07/28 13:05:15;;;;;;;1.98;1.70;;;23.40;62.30;;;;;;5073477;28;20059;-76
2021/07/28 13:10:19;;;;;;;3.13;1.25;;;23.50;61.50;;;;;;5073502;28;20041;-75
2021/07/28 13:15:37;;;;;;;3.08;1.50;;;23.50;61.10;;;;;;5076628;28;20039;-79
2021/07/28 13:18:04;;;;;;;2.55;1.63;;;23.30;61.00;;;;;;5057792;28;20030;-74
2021/07/28 13:20:31;;;;;;;3.53;1.80;;;23.10;61.00;;;;;;5055484;28;20101;-76
2021/07/28 13:22:57;;;;;;;2.95;1.90;;;23.00;61.30;;;;;;5071883;28;20460;-75
2021/07/28 13:25:22;;;;;;;4.05;1.80;;;22.90;61.70;;;;;;5055480;28;20028;-75
2021/07/28 13:27:48;;;;;;;6.78;1.65;;;22.70;62.30;;;;;;5055537;28;20507;-77
2021/07/28 13:30:14;;;;;;;3.25;1.70;;;22.40;62.90;;;;;;5055255;28;20051;-74
2021/07/28 13:32:40;;;;;;;2.33;1.50;;;22.20;64.00;;;;;;5055226;28;20024;-77